Time;durP1;ratioP1;P1;durP2;ratioP2;P2;SDS_P1;SDS_P2;PMS_P1;PMS_P2;Temp;Humidity;BMP_temperature;BMP_pressure;BME280_temperature;BME280_humidity;BME280_pressure;Samples;Min_cycle;Max_cycle;Signal;HPM_P1;HPM_P2
2021/04/21 00:00:15;;;;;;;13.15;10.00;;;;;;;5.50;73.64;99346.66;4996257;28;20498;-62
2021/04/21 00:02:40;;;;;;;11.55;8.80;;;;;;;5.45;73.27;99343.78;5012535;28;20030;-62
2021/04/21 00:05:06;;;;;;;12.98;9.25;;;;;;;5.36;72.84;99351.16;4995591;28;20025;-62
2021/04/21 00:07:32;;;;;;;12.30;9.25;;;;;;;5.27;74.85;99341.75;5013718;28;20022;-62
2021/04/21 00:09:57;;;;;;;12.38;9.60;;;;;;;5.31;75.04;99345.63;5012369;28;20049;-62
2021/04/21 00:12:23;;;;;;;13.70;9.43;;;;;;;5.23;74.13;99344.00;4995587;28;20062;-62
2021/04/21 00:14:52;;;;;;;11.68;9.35;;;;;;;5.00;74.94;99341.75;4996121;28;20034;-62
2021/04/21 00:17:19;;;;;;;14.10;9.80;;;;;;;4.83;75.68;99343.97;4995593;28;20118;-62
2021/04/21 00:19:45;;;;;;;12.65;9.70;;;;;;;4.81;75.53;99338.03;5013514;28;20049;-62
2021/04/21 00:22:13;;;;;;;13.63;10.35;;;;;;;4.87;76.01;99334.59;5011931;28;20038;-62
2021/04/21 00:24:38;;;;;;;13.95;11.77;;;;;;;5.09;75.59;99334.38;4996088;28;20030;-62
2021/04/21 00:27:04;;;;;;;15.65;12.20;;;;;;;5.44;74.50;99336.81;4995388;28;20042;-62
2021/04/21 00:29:30;;;;;;;17.15;12.93;;;;;;;5.50;74.08;99341.34;5012193;28;20480;-62
2021/04/21 00:31:55;;;;;;;15.00;11.98;;;;;;;5.31;74.74;99330.50;5011592;28;20034;-62
2021/04/21 00:34:21;;;;;;;14.07;11.18;;;;;;;5.12;75.54;99332.16;4995712;28;20440;-62
2021/04/21 00:36:49;;;;;;;15.15;11.45;;;;;;;5.10;75.62;99328.06;4995407;28;20607;-62
2021/04/21 00:39:14;;;;;;;13.43;10.88;;;;;;;5.05;75.95;99333.97;5013426;28;20465;-62
2021/04/21 00:41:55;;;;;;;16.02;11.45;;;;;;;4.94;76.41;99338.06;5011666;28;20100;-62
2021/04/21 00:44:54;;;;;;;13.63;10.85;;;;;;;4.97;76.25;99332.34;5013198;28;20503;-62
2021/04/21 00:47:23;;;;;;;12.52;10.35;;;;;;;5.00;76.16;99335.63;5012774;28;20065;-62
2021/04/21 00:50:00;;;;;;;13.70;11.32;;;;;;;4.55;78.26;99328.19;4995788;28;20030;-62
2021/04/21 00:52:49;;;;;;;14.50;11.68;;;;;;;4.78;76.93;99325.16;4995454;28;20038;-63
2021/04/21 00:55:36;;;;;;;14.20;11.73;;;;;;;4.83;76.97;99328.03;5011862;28;20071;-62
2021/04/21 00:58:46;;;;;;;14.85;11.13;;;;;;;4.87;76.99;99326.63;5011819;28;20029;-62
2021/04/21 01:01:11;;;;;;;13.85;10.52;;;;;;;4.77;76.41;99320.91;4980498;28;20146;-62
2021/04/21 01:03:37;;;;;;;16.42;11.50;;;;;;;4.79;76.97;99326.78;4995721;28;20372;-62
2021/04/21 01:06:05;;;;;;;13.02;10.43;;;;;;;4.95;75.36;99323.75;5011496;28;20034;-62
2021/04/21 01:08:37;;;;;;;12.43;9.63;;;;;;;4.90;75.20;99315.59;4995523;28;20121;-62
2021/04/21 01:11:07;;;;;;;12.88;10.00;;;;;;;4.89;75.24;99323.75;5011418;28;20038;-62
2021/04/21 01:13:39;;;;;;;11.63;9.52;;;;;;;5.08;74.52;99319.47;5012656;28;20072;-62
2021/04/21 01:16:05;;;;;;;10.73;8.50;;;;;;;5.08;74.52;99312.31;5011206;28;20046;-62
2021/04/21 01:18:30;;;;;;;14.40;9.15;;;;;;;5.11;73.88;99313.75;5012819;28;20105;-62
2021/04/21 01:21:11;;;;;;;10.55;9.05;;;;;;;5.06;74.21;99308.22;5011326;28;20034;-62
2021/04/21 01:23:58;;;;;;;10.30;8.52;;;;;;;5.11;74.14;99311.91;5011595;28;20420;-62
2021/04/21 01:26:39;;;;;;;11.90;9.32;;;;;;;5.12;74.15;99307.44;5012402;28;20049;-62
2021/04/21 01:29:05;;;;;;;13.52;9.60;;;;;;;4.82;74.37;99313.13;5011197;28;20109;-62
2021/04/21 01:31:32;;;;;;;15.10;10.05;;;;;;;4.61;76.23;99313.31;4994821;28;20050;-62
2021/04/21 01:33:58;;;;;;;11.75;9.55;;;;;;;4.50;76.11;99304.91;5011293;28;20032;-62
2021/04/21 01:36:23;;;;;;;12.00;9.77;;;;;;;4.58;76.78;99306.56;4994497;28;20037;-62
2021/04/21 01:38:50;;;;;;;14.63;9.65;;;;;;;4.71;76.14;99311.06;5011152;28;20064;-62
2021/04/21 01:41:21;;;;;;;11.30;9.57;;;;;;;4.67;75.69;99309.84;4998068;28;20056;-62
2021/04/21 01:43:57;;;;;;;11.32;8.98;;;;;;;4.53;75.73;99309.00;5014999;28;20026;-62
2021/04/21 01:46:23;;;;;;;11.45;9.48;;;;;;;4.49;76.67;99307.75;5014629;28;20060;-62
2021/04/21 01:48:48;;;;;;;11.15;9.32;;;;;;;4.38;76.83;99305.69;5014856;28;20042;-62
2021/04/21 01:51:22;;;;;;;10.10;8.75;;;;;;;4.41;78.83;99306.09;5015419;28;20042;-62
2021/04/21 01:53:55;;;;;;;12.50;9.82;;;;;;;4.41;77.30;99303.44;5016342;28;20034;-62
2021/04/21 01:56:25;;;;;;;11.43;9.45;;;;;;;4.39;76.97;99308.13;5014497;28;20459;-62
2021/04/21 01:59:29;;;;;;;13.88;9.68;;;;;;;4.33;77.13;99309.75;5014961;28;20045;-62
2021/04/21 02:01:56;;;;;;;11.82;8.15;;;;;;;4.10;77.45;99314.59;4954885;29;20098;-62
2021/04/21 02:04:45;;;;;;;12.00;9.85;;;;;;;4.07;77.45;99312.34;5004174;28;20037;-62
2021/04/21 02:07:25;;;;;;;11.15;8.52;;;;;;;4.02;79.59;99318.22;5014502;28;20084;-62
2021/04/21 02:10:23;;;;;;;11.73;9.57;;;;;;;4.05;78.71;99317.84;5014511;28;20061;-62
2021/04/21 02:13:08;;;;;;;10.63;8.65;;;;;;;3.82;78.23;99312.84;5014226;28;20057;-62
2021/04/21 02:16:09;;;;;;;13.07;8.98;;;;;;;3.77;79.39;99315.25;4999479;28;20480;-62
2021/04/21 02:18:57;;;;;;;11.43;9.05;;;;;;;3.82;78.92;99314.66;5014676;28;20026;-62
2021/04/21 02:22:00;;;;;;;12.98;9.60;;;;;;;3.90;79.72;99314.50;5014105;28;20034;-62
2021/04/21 02:24:39;;;;;;;11.48;9.35;;;;;;;3.76;79.42;99312.78;5015511;28;20034;-62
2021/04/21 02:27:23;;;;;;;11.95;8.95;;;;;;;3.80;80.61;99316.69;5014053;28;20157;-62
2021/04/21 02:30:05;;;;;;;11.85;9.48;;;;;;;3.71;78.77;99321.34;5015454;28;20041;-62
2021/04/21 02:32:32;;;;;;;9.20;8.18;;;;;;;3.54;79.16;99315.50;5015078;28;20125;-62
2021/04/21 02:35:05;;;;;;;11.07;9.05;;;;;;;3.59;80.26;99323.69;5014125;28;20038;-62
2021/04/21 02:38:04;;;;;;;11.45;8.57;;;;;;;3.57;80.23;99328.41;5013804;28;20113;-62
2021/04/21 02:40:38;;;;;;;10.23;8.27;;;;;;;3.42;80.61;99325.84;5014906;28;20050;-62
2021/04/21 02:43:43;;;;;;;11.40;8.35;;;;;;;3.67;84.13;99320.91;4998486;28;20029;-62
2021/04/21 02:46:28;;;;;;;12.20;9.18;;;;;;;3.67;80.62;99323.56;5000204;28;20096;-62
2021/04/21 02:49:12;;;;;;;13.32;8.60;;;;;;;3.54;81.40;99326.13;5014226;28;20473;-62
2021/04/21 02:51:47;;;;;;;11.68;8.43;;;;;;;3.47;80.47;99327.94;5013409;28;20392;-62
2021/04/21 02:54:40;;;;;;;10.75;8.57;;;;;;;3.39;79.35;99322.75;5013789;28;20018;-62
2021/04/21 02:57:19;;;;;;;9.90;8.10;;;;;;;3.47;81.28;99322.63;4998447;28;20077;-62
2021/04/21 03:00:03;;;;;;;11.70;9.45;;;;;;;3.52;82.42;99320.22;5013834;28;20096;-62
2021/04/21 03:02:36;;;;;;;12.77;9.57;;;;;;;3.75;79.64;99314.63;5013492;28;20080;-62
2021/04/21 03:05:09;;;;;;;12.15;8.70;;;;;;;3.68;82.15;99317.25;4997868;28;20109;-63
2021/04/21 03:07:57;;;;;;;11.93;8.93;;;;;;;3.49;80.24;99317.94;5013624;28;20032;-62
2021/04/21 03:10:30;;;;;;;10.38;8.43;;;;;;;3.39;80.07;99315.63;5013106;28;20058;-62
2021/04/21 03:13:31;;;;;;;11.85;8.63;;;;;;;3.41;82.61;99321.56;5001098;28;20042;-62
2021/04/21 03:15:58;;;;;;;10.45;8.15;;;;;;;3.39;82.95;99328.06;4953599;28;20526;-62
2021/04/21 03:18:26;;;;;;;11.85;9.20;;;;;;;3.35;81.90;99324.19;4986901;28;20042;-62
2021/04/21 03:20:58;;;;;;;11.40;9.05;;;;;;;3.23;80.79;99322.03;5009788;28;20405;-62
2021/04/21 03:23:25;;;;;;;10.48;8.20;;;;;;;3.32;81.79;99332.50;4993944;28;20022;-62
2021/04/21 03:25:52;;;;;;;9.95;8.30;;;;;;;3.24;81.36;99325.50;4994595;28;20062;-62
2021/04/21 03:28:18;;;;;;;10.57;8.32;;;;;;;3.13;81.38;99328.69;4993562;28;20061;-62
2021/04/21 03:30:44;;;;;;;9.80;8.10;;;;;;;3.19;81.87;99334.03;4994704;28;20397;-62
2021/04/21 03:33:12;;;;;;;10.73;8.20;;;;;;;3.29;81.51;99333.69;5010146;28;20461;-62
2021/04/21 03:35:38;;;;;;;12.00;8.43;;;;;;;3.31;81.55;99328.22;4994544;28;20117;-62
2021/04/21 03:38:07;;;;;;;10.27;8.18;;;;;;;3.29;81.80;99322.28;4993781;28;20031;-62
2021/04/21 03:40:33;;;;;;;10.25;8.05;;;;;;;3.21;81.22;99329.34;4994200;28;20049;-62
2021/04/21 03:42:58;;;;;;;10.75;8.07;;;;;;;3.12;81.05;99324.38;4994591;28;20112;-62
2021/04/21 03:45:27;;;;;;;10.05;8.30;;;;;;;2.94;83.27;99319.56;5009254;28;20378;-62
2021/04/21 03:47:54;;;;;;;13.85;8.73;;;;;;;2.86;82.90;99317.06;4994325;28;20033;-62
2021/04/21 03:50:19;;;;;;;11.25;9.05;;;;;;;2.94;82.80;99322.22;4993665;28;20030;-61
2021/04/21 03:52:46;;;;;;;10.73;9.07;;;;;;;2.86;82.20;99328.47;4996408;28;20068;-62
2021/04/21 03:55:12;;;;;;;10.35;8.00;;;;;;;2.72;81.89;99330.19;5013449;28;20026;-61
2021/04/21 03:57:46;;;;;;;10.55;8.32;;;;;;;2.62;82.57;99327.03;5014062;28;20041;-62
2021/04/21 04:00:14;;;;;;;10.07;8.40;;;;;;;2.61;83.05;99324.56;5012260;28;20057;-61
2021/04/21 04:02:40;;;;;;;12.02;8.82;;;;;;;2.67;83.68;99324.63;5012237;28;20393;-61
2021/04/21 04:05:08;;;;;;;13.38;9.77;;;;;;;2.75;83.75;99323.69;4995329;28;20030;-62
2021/04/21 04:07:37;;;;;;;13.10;10.25;;;;;;;2.84;82.98;99314.59;4996148;28;20583;-61
2021/04/21 04:10:03;;;;;;;14.07;10.73;;;;;;;2.91;83.10;99312.81;5012003;28;20030;-62
2021/04/21 04:12:31;;;;;;;15.48;12.63;;;;;;;3.01;83.81;99320.44;5013659;28;20046;-62
2021/04/21 04:14:56;;;;;;;11.57;9.70;;;;;;;2.92;82.20;99319.78;5012658;28;20026;-62
2021/04/21 04:17:22;;;;;;;13.43;10.15;;;;;;;2.83;82.48;99322.75;4995612;28;20476;-61
2021/04/21 04:19:48;;;;;;;11.95;10.13;;;;;;;2.75;82.88;99324.50;5012361;28;20040;-61
2021/04/21 04:22:15;;;;;;;13.85;10.65;;;;;;;2.65;82.59;99325.84;4983621;28;20028;-61
2021/04/21 04:24:49;;;;;;;18.85;11.88;;;;;;;2.64;83.78;99319.69;5009277;28;20113;-61
2021/04/21 04:27:15;;;;;;;16.02;12.45;;;;;;;2.77;84.76;99326.94;5010440;28;20484;-62
2021/04/21 04:29:42;;;;;;;15.30;11.40;;;;;;;2.90;84.75;99327.06;5011745;28;20022;-61
2021/04/21 04:32:18;;;;;;;13.50;10.65;;;;;;;3.09;83.48;99322.94;5010319;28;20034;-62
2021/04/21 04:34:45;;;;;;;15.75;10.55;;;;;;;2.87;81.06;99335.41;4996031;28;20022;-61
2021/04/21 04:37:12;;;;;;;14.70;11.05;;;;;;;2.90;82.04;99331.56;5010045;28;20041;-62
2021/04/21 04:39:37;;;;;;;12.70;10.48;;;;;;;3.11;82.94;99331.53;5010926;28;20029;-62
2021/04/21 04:42:04;;;;;;;13.75;10.45;;;;;;;3.38;80.92;99334.38;5010239;28;20129;-63
2021/04/21 04:44:29;;;;;;;13.18;10.23;;;;;;;3.70;78.91;99345.41;5010831;28;20034;-62
2021/04/21 04:46:55;;;;;;;13.10;10.63;;;;;;;3.99;76.73;99339.81;5011319;28;20041;-61
2021/04/21 04:49:21;;;;;;;12.75;9.82;;;;;;;3.46;78.72;99345.63;4994357;28;20112;-62
2021/04/21 04:51:46;;;;;;;12.02;8.43;;;;;;;3.90;77.10;99348.97;4995097;28;20045;-61
2021/04/21 04:54:15;;;;;;;15.30;9.20;;;;;;;4.64;73.63;99342.09;5013071;28;20390;-61
2021/04/21 04:56:44;;;;;;;14.20;9.25;;;;;;;4.91;72.15;99348.28;5012748;28;20492;-62
2021/04/21 04:59:10;;;;;;;11.23;8.65;;;;;;;4.76;72.75;99346.59;5013134;28;20052;-61
2021/04/21 05:01:46;;;;;;;11.57;9.88;;;;;;;4.98;72.77;99355.22;5011203;28;20042;-61
2021/04/21 05:04:13;;;;;;;10.43;8.68;;;;;;;5.92;68.76;99349.84;5011803;28;20030;-62
2021/04/21 05:06:40;;;;;;;11.65;8.63;;;;;;;6.52;66.33;99360.28;5012505;28;20038;-62
2021/04/21 05:09:06;;;;;;;10.68;7.88;;;;;;;6.06;66.06;99351.44;5011673;28;20022;-62
2021/04/21 05:11:31;;;;;;;11.77;7.68;;;;;;;6.88;63.89;99357.00;5011263;28;20038;-62
2021/04/21 05:13:57;;;;;;;12.13;7.97;;;;;;;7.51;61.54;99356.94;5011528;28;20042;-62
2021/04/21 05:16:26;;;;;;;8.23;6.97;;;;;;;7.67;59.84;99360.06;5016546;28;20042;-62
2021/04/21 05:19:06;;;;;;;8.45;7.40;;;;;;;8.42;57.93;99365.22;5017099;28;20034;-64
2021/04/21 05:21:59;;;;;;;8.43;6.72;;;;;;;8.81;61.67;99368.38;5016529;28;20038;-62
2021/04/21 05:25:03;;;;;;;9.75;7.97;;;;;;;8.88;56.39;99377.09;5015587;28;20025;-62
2021/04/21 05:27:47;;;;;;;8.65;6.95;;;;;;;8.67;56.68;99373.09;5016515;28;20041;-62
2021/04/21 05:30:27;;;;;;;7.43;6.22;;;;;;;9.55;53.18;99379.56;5016339;28;20026;-62
2021/04/21 05:32:58;;;;;;;;;;;;;;;8.94;54.69;99375.41;5017185;28;20026;-62
2021/04/21 05:35:47;;;;;;;7.10;5.57;;;;;;;9.76;52.69;99374.69;5016370;28;20435;-62
2021/04/21 05:38:30;;;;;;;7.55;6.03;;;;;;;10.79;49.95;99381.94;5015508;28;20026;-63
2021/04/21 05:41:11;;;;;;;6.75;5.82;;;;;;;10.38;50.75;99382.19;5016028;28;20096;-63
2021/04/21 05:43:58;;;;;;;8.57;5.25;;;;;;;10.44;50.81;99382.06;5000822;28;20436;-62
2021/04/21 05:47:00;;;;;;;6.95;5.85;;;;;;;10.93;49.36;99379.78;5016094;28;20088;-63
2021/04/21 05:49:25;;;;;;;7.10;6.40;;;;;;;11.25;48.36;99387.28;5016380;28;20041;-63
2021/04/21 05:52:10;;;;;;;8.32;6.18;;;;;;;11.58;47.40;99385.66;5015953;28;20038;-63
2021/04/21 05:55:14;;;;;;;8.45;6.53;;;;;;;11.25;48.34;99386.47;5016231;28;20026;-63
2021/04/21 05:58:02;;;;;;;9.93;6.70;;;;;;;11.81;46.49;99390.84;5015308;28;20041;-63
2021/04/21 06:00:53;;;;;;;7.78;6.90;;;;;;;10.95;49.74;99388.38;5014872;28;20041;-63
2021/04/21 06:03:18;;;;;;;;;;;;;;;11.48;48.89;99388.19;5016554;28;20041;-61
2021/04/21 06:05:46;;;;;;;8.77;6.97;;;;;;;11.83;48.63;99390.59;5015869;28;19917;-62
2021/04/21 06:08:12;;;;;;;12.77;6.90;;;;;;;12.67;46.03;99387.66;5016133;28;20080;-63
2021/04/21 06:10:38;;;;;;;7.30;6.45;;;;;;;13.46;44.56;99383.63;5015887;28;20409;-63
2021/04/21 06:13:03;;;;;;;7.03;6.20;;;;;;;13.55;44.23;99390.16;5015825;28;20496;-63
2021/04/21 06:15:31;;;;;;;6.78;5.97;;;;;;;14.12;42.91;99387.81;5015712;28;20104;-63
2021/04/21 06:17:58;;;;;;;6.57;5.70;;;;;;;13.68;43.68;99385.38;5016221;28;20033;-63
2021/04/21 06:20:37;;;;;;;7.00;6.25;;;;;;;14.47;41.86;99387.16;5014443;28;20045;-63
2021/04/21 06:23:08;;;;;;;6.78;5.68;;;;;;;14.42;42.21;99390.63;5015040;28;20026;-63
2021/04/21 06:25:34;;;;;;;6.22;5.53;;;;;;;14.60;41.35;99394.78;5014927;28;20034;-63
2021/04/21 06:28:06;;;;;;;5.90;5.10;;;;;;;14.51;41.76;99400.94;5015536;28;20493;-63
2021/04/21 06:30:31;;;;;;;6.40;5.53;;;;;;;14.46;42.50;99396.31;5015387;28;20176;-63
2021/04/21 06:32:58;;;;;;;8.02;5.43;;;;;;;15.07;41.48;99401.09;5014360;28;20018;-63
2021/04/21 06:35:24;;;;;;;6.25;5.45;;;;;;;14.91;41.31;99402.97;5015266;28;20519;-63
2021/04/21 06:37:49;;;;;;;6.80;5.90;;;;;;;14.79;42.45;99400.50;4997910;28;20034;-63
2021/04/21 06:40:15;;;;;;;6.63;5.35;;;;;;;15.84;40.07;99409.25;5013717;28;20045;-63
2021/04/21 06:42:40;;;;;;;12.05;5.72;;;;;;;15.86;40.63;99404.38;5014123;28;20037;-63
2021/04/21 06:45:07;;;;;;;18.13;6.45;;;;;;;16.18;39.70;99409.44;5015048;28;20022;-62
2021/04/21 06:47:32;;;;;;;10.13;5.80;;;;;;;15.88;40.97;99410.31;5014014;28;20057;-62
2021/04/21 06:50:05;;;;;;;7.35;5.20;;;;;;;15.94;40.99;99414.63;5014007;28;20061;-62
2021/04/21 06:52:41;;;;;;;5.97;4.95;;;;;;;16.74;39.02;99416.53;5014874;28;20034;-62
2021/04/21 06:55:16;;;;;;;7.35;5.43;;;;;;;16.30;41.13;99415.38;5014903;28;20037;-63
2021/04/21 06:57:42;;;;;;;8.02;5.63;;;;;;;16.17;40.68;99416.75;5015129;28;20497;-63
2021/04/21 07:00:12;;;;;;;8.10;7.30;;;;;;;16.05;41.85;99418.94;5014628;28;20045;-63
2021/04/21 07:02:43;;;;;;;7.55;6.40;;;;;;;17.45;38.85;99424.22;5015028;28;20025;-62
2021/04/21 07:05:36;;;;;;;8.75;7.85;;;;;;;16.30;40.95;99422.63;5014606;28;20038;-63
2021/04/21 07:08:05;;;;;;;9.18;6.80;;;;;;;16.44;40.82;99423.69;5014993;28;20051;-63
2021/04/21 07:10:31;;;;;;;6.85;5.90;;;;;;;17.53;38.69;99422.00;5013326;28;20038;-63
2021/04/21 07:12:57;;;;;;;8.90;6.75;;;;;;;16.59;40.08;99425.53;5014551;28;20045;-63
2021/04/21 07:15:23;;;;;;;8.27;7.13;;;;;;;15.73;41.77;99424.66;5013150;28;20042;-63
2021/04/21 07:17:48;;;;;;;9.65;7.35;;;;;;;17.29;38.36;99428.13;4997242;28;20494;-63
2021/04/21 07:20:14;;;;;;;8.65;7.75;;;;;;;17.25;38.82;99432.50;5013186;28;20108;-63
2021/04/21 07:22:41;;;;;;;11.93;9.25;;;;;;;17.71;38.06;99428.63;5014714;28;20100;-63
2021/04/21 07:25:07;;;;;;;12.82;11.35;;;;;;;17.83;38.82;99431.81;5012944;28;20476;-63
2021/04/21 07:27:32;;;;;;;15.18;12.40;;;;;;;16.61;40.20;99421.44;5013529;28;20028;-63
2021/04/21 07:29:58;;;;;;;21.17;13.38;;;;;;;17.44;39.14;99425.31;5014303;28;20089;-63
2021/04/21 07:32:24;;;;;;;17.85;12.07;;;;;;;16.54;40.90;99434.47;5012878;28;20057;-63
2021/04/21 07:34:59;;;;;;;13.23;9.50;;;;;;;17.28;39.87;99437.38;5013340;28;20038;-63
2021/04/21 07:37:35;;;;;;;14.50;9.75;;;;;;;17.14;39.44;99430.94;5013473;28;20410;-63
2021/04/21 07:40:00;;;;;;;24.05;11.55;;;;;;;17.71;38.94;99428.63;5014019;28;20372;-63
2021/04/21 07:42:26;;;;;;;16.98;11.95;;;;;;;17.60;39.91;99430.63;5013181;28;20022;-62
2021/04/21 07:44:52;;;;;;;22.90;11.15;;;;;;;17.26;39.54;99434.13;5014321;28;20022;-63
2021/04/21 07:47:22;;;;;;;18.23;10.05;;;;;;;17.28;39.74;99426.53;5012720;28;20030;-63
2021/04/21 07:49:53;;;;;;;;;;;;;;;16.80;40.69;99426.28;5014784;28;20105;-63
2021/04/21 07:52:29;;;;;;;19.23;10.35;;;;;;;17.11;41.00;99435.03;5013707;28;19949;-62
2021/04/21 07:55:24;;;;;;;18.60;11.50;;;;;;;17.45;40.17;99440.50;5014085;28;20461;-62
2021/04/21 07:57:57;;;;;;;23.40;11.25;;;;;;;17.18;41.04;99437.44;4999865;28;20377;-62
2021/04/21 08:00:32;;;;;;;22.38;10.32;;;;;;;17.13;41.51;99434.75;5013753;28;20034;-62
2021/04/21 08:03:00;;;;;;;20.75;11.82;;;;;;;17.39;41.21;99438.88;5014036;28;20032;-63
2021/04/21 08:05:25;;;;;;;16.67;12.07;;;;;;;17.70;39.22;99435.97;5013099;28;20065;-63
2021/04/21 08:07:58;;;;;;;13.27;11.25;;;;;;;17.70;38.70;99433.25;5013881;28;20369;-63
2021/04/21 08:10:25;;;;;;;14.80;11.52;;;;;;;16.59;41.66;99434.44;5013514;28;20500;-63
2021/04/21 08:12:52;;;;;;;14.70;12.13;;;;;;;18.15;38.44;99441.28;5013955;28;20050;-63
2021/04/21 08:15:17;;;;;;;15.60;12.70;;;;;;;16.10;42.96;99435.16;5013354;28;20021;-63
2021/04/21 08:17:59;;;;;;;14.40;12.85;;;;;;;16.76;40.61;99430.59;5012517;28;20024;-62
2021/04/21 08:20:30;;;;;;;14.95;12.95;;;;;;;17.63;39.07;99433.56;5013360;28;20058;-63
2021/04/21 08:22:56;;;;;;;17.25;13.45;;;;;;;16.96;39.86;99440.53;5013954;28;20018;-63
2021/04/21 08:25:22;;;;;;;21.63;13.77;;;;;;;18.40;38.12;99432.03;5011949;28;20034;-62
2021/04/21 08:27:48;;;;;;;21.50;14.55;;;;;;;17.87;38.40;99439.09;5012321;28;20026;-63
2021/04/21 08:30:14;;;;;;;19.02;14.93;;;;;;;15.81;42.86;99442.22;5013218;28;20037;-63
2021/04/21 08:32:40;;;;;;;21.35;15.73;;;;;;;16.45;42.06;99444.25;5013557;28;20057;-62
2021/04/21 08:35:06;;;;;;;19.33;16.02;;;;;;;15.02;44.32;99442.38;5011954;28;20018;-62
2021/04/21 08:37:31;;;;;;;26.58;17.02;;;;;;;15.44;44.38;99443.25;5013544;28;20045;-63
2021/04/21 08:39:57;;;;;;;21.30;14.88;;;;;;;17.24;41.46;99447.13;5013579;28;20477;-62
2021/04/21 08:42:23;;;;;;;22.42;17.80;;;;;;;17.43;39.76;99448.09;5012998;28;20040;-62
2021/04/21 08:44:48;;;;;;;23.08;15.80;;;;;;;17.95;39.05;99439.56;5013403;28;20428;-62
2021/04/21 08:47:15;;;;;;;23.70;16.45;;;;;;;18.83;36.97;99448.38;5011752;28;20080;-62
2021/04/21 08:49:41;;;;;;;20.63;17.58;;;;;;;17.83;38.88;99437.22;5013371;28;20061;-62
2021/04/21 08:52:06;;;;;;;20.90;17.42;;;;;;;17.94;38.06;99443.34;5011692;28;20030;-62
2021/04/21 08:54:32;;;;;;;25.42;18.73;;;;;;;18.63;36.68;99450.19;5013465;28;20037;-62
2021/04/21 08:56:58;;;;;;;20.90;17.88;;;;;;;19.09;36.03;99452.34;5013114;28;20034;-62
2021/04/21 08:59:23;;;;;;;25.02;17.58;;;;;;;18.89;35.85;99444.47;4995860;28;20041;-62
2021/04/21 09:01:49;;;;;;;22.48;17.38;;;;;;;18.54;37.50;99447.31;5012849;28;20038;-62
2021/04/21 09:04:14;;;;;;;23.92;19.13;;;;;;;17.67;38.31;99447.34;5013185;28;20588;-63
2021/04/21 09:06:40;;;;;;;23.92;18.58;;;;;;;17.82;39.24;99439.13;5011616;28;20045;-62
2021/04/21 09:09:05;;;;;;;23.92;18.25;;;;;;;19.11;36.50;99447.41;5011803;28;20033;-62
2021/04/21 09:11:32;;;;;;;25.15;17.38;;;;;;;19.24;36.77;99436.91;5012578;28;20034;-63
2021/04/21 09:13:58;;;;;;;25.48;17.70;;;;;;;18.46;38.64;99444.44;5012878;28;20056;-62
2021/04/21 09:16:23;;;;;;;29.15;17.75;;;;;;;19.12;36.04;99443.63;5011279;28;20038;-62
2021/04/21 09:18:50;;;;;;;20.65;16.70;;;;;;;19.30;36.09;99441.19;5013284;28;20087;-62
2021/04/21 09:21:20;;;;;;;25.30;17.17;;;;;;;19.46;36.60;99450.72;5012757;28;20449;-62
2021/04/21 09:23:47;;;;;;;;;;;;;;;19.69;35.75;99437.34;5012210;28;20026;-62
2021/04/21 09:26:19;;;;;;;24.23;16.40;;;;;;;19.16;36.65;99435.69;5012622;28;19914;-62
2021/04/21 09:28:45;;;;;;;33.17;17.20;;;;;;;19.48;35.87;99443.06;5012836;28;20041;-62
2021/04/21 09:31:19;;;;;;;25.67;16.20;;;;;;;20.16;35.80;99435.41;5011349;28;20045;-63
2021/04/21 09:33:45;;;;;;;21.02;16.20;;;;;;;20.20;34.46;99447.31;5011871;28;20117;-63
2021/04/21 09:36:10;;;;;;;16.75;15.05;;;;;;;18.54;35.87;99441.88;5012423;28;20038;-62
2021/04/21 09:38:36;;;;;;;16.17;14.43;;;;;;;17.53;38.10;99432.84;5012897;28;20520;-62
2021/04/21 09:41:03;;;;;;;17.00;13.13;;;;;;;18.94;36.52;99438.97;5012235;28;20038;-63
2021/04/21 09:43:29;;;;;;;13.80;12.07;;;;;;;19.86;33.84;99440.28;5012760;28;20100;-62
2021/04/21 09:45:57;;;;;;;21.45;13.65;;;;;;;19.29;35.21;99439.56;5012359;28;20499;-62
2021/04/21 09:48:29;;;;;;;16.75;13.80;;;;;;;18.19;36.22;99426.00;5012551;28;20045;-63
2021/04/21 09:51:07;;;;;;;16.65;13.43;;;;;;;19.46;36.29;99433.59;5012391;28;20084;-62
2021/04/21 09:53:34;;;;;;;18.50;13.35;;;;;;;18.72;35.41;99432.19;5012760;28;20055;-62
2021/04/21 09:56:00;;;;;;;15.45;12.52;;;;;;;18.56;35.93;99429.94;5010987;28;20050;-62
2021/04/21 09:58:36;;;;;;;15.57;12.85;;;;;;;18.14;36.66;99421.44;5012778;28;20085;-63
2021/04/21 10:01:19;;;;;;;14.35;12.55;;;;;;;17.33;38.57;99429.19;5013912;28;20041;-62
2021/04/21 10:03:45;;;;;;;14.43;11.95;;;;;;;17.41;38.46;99425.06;5015195;28;20120;-62
2021/04/21 10:06:20;;;;;;;16.23;12.80;;;;;;;16.76;41.38;99420.56;5015799;28;20209;-62
2021/04/21 10:08:46;;;;;;;16.00;12.38;;;;;;;17.97;38.40;99421.91;5015643;28;20029;-62
2021/04/21 10:11:11;;;;;;;14.95;12.57;;;;;;;18.16;36.69;99421.97;5015826;28;20042;-62
2021/04/21 10:13:44;;;;;;;15.68;12.82;;;;;;;17.61;37.73;99424.09;5014665;28;20439;-63
2021/04/21 10:16:10;;;;;;;12.95;11.57;;;;;;;17.36;37.66;99423.22;5015584;28;20504;-64
2021/04/21 10:18:36;;;;;;;18.33;12.15;;;;;;;17.46;38.64;99420.41;5016215;28;20034;-63
2021/04/21 10:21:02;;;;;;;18.63;12.95;;;;;;;17.77;39.43;99416.63;5015489;28;20125;-63
2021/04/21 10:23:28;;;;;;;14.20;12.27;;;;;;;19.78;35.11;99430.13;5015857;28;20108;-63
2021/04/21 10:25:54;;;;;;;16.58;13.80;;;;;;;19.44;36.25;99411.34;5015389;28;20026;-63
2021/04/21 10:28:22;;;;;;;14.68;13.13;;;;;;;19.56;35.28;99428.00;5014718;28;20026;-63
2021/04/21 10:30:48;;;;;;;17.35;12.85;;;;;;;20.10;34.37;99425.75;5015435;28;20081;-63
2021/04/21 10:33:14;;;;;;;15.27;13.10;;;;;;;19.71;35.10;99426.97;5014708;28;20026;-63
2021/04/21 10:35:39;;;;;;;17.35;13.73;;;;;;;19.86;35.51;99410.38;5014251;28;20045;-63
2021/04/21 10:38:05;;;;;;;16.75;13.23;;;;;;;19.88;34.44;99424.50;5015755;28;20029;-63
2021/04/21 10:40:31;;;;;;;15.88;13.45;;;;;;;18.74;36.39;99419.09;5013962;28;20034;-63
2021/04/21 10:42:59;;;;;;;16.58;14.68;;;;;;;18.10;37.88;99404.16;5015740;28;20033;-63
2021/04/21 10:45:26;;;;;;;15.30;13.70;;;;;;;18.27;38.28;99404.50;5015076;28;20528;-63
2021/04/21 10:47:52;;;;;;;15.60;13.13;;;;;;;19.66;36.14;99405.28;5014147;28;20105;-63
2021/04/21 10:50:43;;;;;;;14.80;13.30;;;;;;;19.54;36.09;99398.38;5015080;28;20033;-63
2021/04/21 10:53:29;;;;;;;17.23;12.70;;;;;;;20.76;33.85;99399.13;5015598;28;20041;-63
2021/04/21 10:55:54;;;;;;;18.08;12.95;;;;;;;19.56;35.75;99392.66;5007344;28;20046;-62
2021/04/21 10:58:20;;;;;;;15.82;13.05;;;;;;;20.02;35.71;99400.03;5015048;28;20026;-63
2021/04/21 11:00:50;;;;;;;14.63;11.75;;;;;;;19.76;34.64;99396.97;5014730;28;20049;-62
2021/04/21 11:03:26;;;;;;;16.02;12.73;;;;;;;18.89;36.08;99395.59;5014054;28;20373;-63
2021/04/21 11:05:57;;;;;;;16.75;12.43;;;;;;;20.40;33.51;99392.47;5013406;28;20041;-63
2021/04/21 11:08:24;;;;;;;14.70;11.55;;;;;;;20.96;32.97;99386.97;5015014;28;20025;-63
2021/04/21 11:10:58;;;;;;;14.65;12.43;;;;;;;20.66;33.41;99387.31;5013227;28;20042;-63
2021/04/21 11:13:24;;;;;;;14.73;11.63;;;;;;;20.50;33.31;99382.50;5013797;28;20054;-63
2021/04/21 11:15:50;;;;;;;13.55;11.48;;;;;;;20.90;32.86;99373.47;5014717;28;20038;-62
2021/04/21 11:18:29;;;;;;;13.98;11.93;;;;;;;20.42;31.64;99381.31;5014980;28;20024;-63
2021/04/21 11:20:58;;;;;;;14.30;12.57;;;;;;;18.11;37.58;99379.44;5013408;28;20420;-63
2021/04/21 11:23:45;;;;;;;16.37;12.80;;;;;;;18.97;35.44;99375.94;5014716;28;20061;-62
2021/04/21 11:26:23;;;;;;;15.82;12.00;;;;;;;18.76;35.04;99375.41;5014382;28;20069;-62
2021/04/21 11:28:58;;;;;;;16.65;12.45;;;;;;;18.37;35.10;99379.16;5014683;28;20034;-62
2021/04/21 11:31:50;;;;;;;13.48;12.07;;;;;;;19.03;34.01;99377.47;5014251;28;20119;-62
2021/04/21 11:34:27;;;;;;;12.88;11.50;;;;;;;18.62;33.56;99369.88;5009013;28;20044;-63
2021/04/21 11:37:17;;;;;;;15.88;11.85;;;;;;;18.31;33.89;99366.75;5014189;28;20081;-63
2021/04/21 11:39:42;;;;;;;14.90;11.80;;;;;;;19.14;32.86;99362.59;5014648;28;20030;-63
2021/04/21 11:42:20;;;;;;;15.02;11.40;;;;;;;18.80;33.00;99360.16;5014156;28;20404;-62
2021/04/21 11:44:56;;;;;;;13.10;11.70;;;;;;;18.16;34.55;99362.31;5014544;28;20109;-63
2021/04/21 11:47:33;;;;;;;13.82;11.00;;;;;;;19.08;34.05;99355.66;5013774;28;20041;-62